Aumo Airport


Codes: AUV/AUV
Name: Aumo Airport
City: Aumo
Country: Papua New Guinea
Elevation: 450 ft.

Photos at Aumo Airport


   Photos courtesy of SpottingLog. You can add your own sightings and photos by signing up for a free trial today.



No photos found.

Weather at Aumo Airport


Time (UTC)DescriptionTempratureWindCloud coverageVisibilityPressureHumidity
13-Jun-2024 03:00Light Rain26°C9 mph, S55%10000m1011hPa79%
13-Jun-2024 06:00Light Rain26°C11 mph, S49%10000m1010hPa79%
13-Jun-2024 09:00Light Rain25°C9 mph, SE65%10000m1010hPa85%
13-Jun-2024 12:00Light Rain25°C9 mph, SE73%10000m1012hPa88%
13-Jun-2024 15:00Light Rain24°C7 mph, SE95%10000m1011hPa90%
13-Jun-2024 18:00Light Rain24°C9 mph, SE76%10000m1009hPa91%
13-Jun-2024 21:00Light Rain24°C9 mph, SE93%10000m1011hPa88%
14-Jun-2024 00:00Moderate Rain25°C13 mph, SE96%6280m1012hPa84%
14-Jun-2024 03:00Moderate Rain25°C11 mph, SE100%6765m1009hPa88%
14-Jun-2024 06:00Moderate Rain24°C13 mph, SE100%7034m1009hPa91%
14-Jun-2024 09:00Moderate Rain23°C9 mph, E100%8787m1011hPa92%
14-Jun-2024 12:00Light Rain24°C11 mph, SE100%10000m1011hPa89%
14-Jun-2024 15:00Light Rain24°C13 mph, SE99%9366m1010hPa90%
14-Jun-2024 18:00Light Rain24°C13 mph, SE99%10000m1010hPa86%
14-Jun-2024 21:00Light Rain25°C13 mph, SE90%10000m1012hPa83%
15-Jun-2024 00:00Light Rain26°C16 mph, SE91%10000m1012hPa77%
15-Jun-2024 03:00Light Rain25°C16 mph, SE92%10000m1010hPa78%
15-Jun-2024 06:00Light Rain25°C16 mph, SE95%10000m1009hPa76%
15-Jun-2024 09:00Overcast Clouds25°C13 mph, SE100%10000m1011hPa78%
15-Jun-2024 12:00Overcast Clouds24°C9 mph, SE100%10000m1012hPa82%
15-Jun-2024 15:00Light Rain25°C11 mph, SE100%10000m1010hPa80%
15-Jun-2024 18:00Light Rain25°C13 mph, SE100%10000m1010hPa80%
15-Jun-2024 21:00Broken Clouds25°C13 mph, SE83%10000m1012hPa78%
16-Jun-2024 00:00Broken Clouds26°C16 mph, SE67%10000m1012hPa70%
16-Jun-2024 03:00Overcast Clouds26°C16 mph, SE93%10000m1011hPa74%
16-Jun-2024 06:00Overcast Clouds25°C16 mph, SE96%10000m1010hPa78%
16-Jun-2024 09:00Overcast Clouds25°C13 mph, SE100%10000m1011hPa79%
16-Jun-2024 12:00Light Rain25°C13 mph, SE100%10000m1013hPa80%
16-Jun-2024 15:00Light Rain24°C13 mph, SE90%8163m1011hPa86%
16-Jun-2024 18:00Light Rain24°C13 mph, SE81%10000m1011hPa88%
16-Jun-2024 21:00Light Rain24°C13 mph, SE77%9502m1012hPa88%
17-Jun-2024 00:00Moderate Rain24°C13 mph, SE89%10000m1013hPa89%
17-Jun-2024 03:00Light Rain24°C16 mph, SE80%10000m1011hPa87%
17-Jun-2024 06:00Light Rain25°C16 mph, SE83%10000m1009hPa83%
17-Jun-2024 09:00Light Rain25°C13 mph, SE82%10000m1011hPa87%
17-Jun-2024 12:00Light Rain24°C16 mph, SE70%10000m1012hPa88%
17-Jun-2024 15:00Light Rain24°C11 mph, SE48%10000m1011hPa90%
17-Jun-2024 18:00Light Rain24°C11 mph, SE50%10000m1011hPa90%
17-Jun-2024 21:00Light Rain24°C11 mph, SE53%10000m1012hPa90%
18-Jun-2024 00:00Light Rain25°C13 mph, SE55%10000m1012hPa83%